Time;durP1;ratioP1;P1;durP2;ratioP2;P2;SDS_P1;SDS_P2;PMS_P1;PMS_P2;Temp;Humidity;BMP_temperature;BMP_pressure;BME280_temperature;BME280_humidity;BME280_pressure;Samples;Min_cycle;Max_cycle;Signal;HPM_P1;HPM_P2
2021/07/06 00:00:12;;;;;;;4.25;1.20;;;20.90;80.10;;;;;;5011406;28;20022;-67
2021/07/06 00:02:38;;;;;;;3.22;1.20;;;20.90;80.20;;;;;;4995000;28;20521;-67
2021/07/06 00:05:05;;;;;;;2.97;1.50;;;20.90;80.10;;;;;;4994892;28;20029;-66
2021/07/06 00:07:31;;;;;;;3.45;1.35;;;20.90;80.20;;;;;;4991300;28;20030;-66
2021/07/06 00:09:57;;;;;;;3.35;1.40;;;20.90;80.20;;;;;;4986017;28;20030;-66
2021/07/06 00:12:23;;;;;;;3.40;1.40;;;20.90;80.30;;;;;;4993842;28;20018;-67
2021/07/06 00:14:48;;;;;;;2.60;1.30;;;20.90;80.30;;;;;;5002546;28;20040;-67
2021/07/06 00:17:14;;;;;;;3.05;1.40;;;20.90;80.60;;;;;;4994457;28;20025;-66
2021/07/06 00:19:40;;;;;;;2.30;1.35;;;20.90;80.50;;;;;;5005302;28;20034;-65
2021/07/06 00:22:06;;;;;;;3.28;1.30;;;20.90;80.70;;;;;;5007619;28;20097;-67
2021/07/06 00:24:32;;;;;;;4.38;1.50;;;20.90;80.80;;;;;;5000447;28;20080;-67
2021/07/06 00:26:58;;;;;;;2.33;1.13;;;20.90;80.90;;;;;;4975153;28;20112;-67
2021/07/06 00:29:23;;;;;;;2.65;1.20;;;20.90;81.00;;;;;;4979810;28;20547;-67
2021/07/06 00:31:49;;;;;;;3.72;1.30;;;20.90;80.90;;;;;;4984385;28;20450;-66
2021/07/06 00:34:14;;;;;;;2.47;1.30;;;20.80;80.90;;;;;;5011431;28;20029;-67
2021/07/06 00:36:40;;;;;;;1.90;1.10;;;20.90;81.00;;;;;;5011592;28;20088;-66
2021/07/06 00:39:06;;;;;;;2.45;1.20;;;20.90;80.70;;;;;;5008752;28;20023;-66
2021/07/06 00:41:34;;;;;;;2.35;1.10;;;20.90;80.90;;;;;;4984351;28;20089;-66
2021/07/06 00:44:00;;;;;;;2.67;1.17;;;20.80;80.90;;;;;;4992419;28;20439;-66
2021/07/06 00:46:25;;;;;;;2.58;1.30;;;20.90;81.00;;;;;;4982363;28;20029;-66
2021/07/06 00:48:51;;;;;;;2.25;1.33;;;20.90;81.00;;;;;;4992880;28;20034;-68
2021/07/06 00:51:17;;;;;;;2.75;1.30;;;20.90;81.30;;;;;;5000494;28;20430;-67
2021/07/06 00:53:43;;;;;;;2.25;1.20;;;20.90;81.40;;;;;;5004620;28;20128;-66
2021/07/06 00:56:09;;;;;;;2.85;1.20;;;20.90;81.30;;;;;;5000241;28;20524;-66
2021/07/06 00:58:36;;;;;;;2.30;1.35;;;20.80;81.40;;;;;;5013187;28;20087;-66
2021/07/06 01:01:03;;;;;;;3.25;1.50;;;20.80;81.40;;;;;;4991032;28;20030;-66
2021/07/06 01:03:32;;;;;;;2.22;1.10;;;20.90;81.30;;;;;;4979763;28;20400;-66
2021/07/06 01:05:58;;;;;;;3.38;1.40;;;20.80;81.30;;;;;;4995556;28;20026;-66
2021/07/06 01:08:23;;;;;;;3.00;1.20;;;20.90;81.40;;;;;;4990918;28;20026;-68
2021/07/06 01:10:49;;;;;;;1.75;1.15;;;20.80;81.40;;;;;;4989951;28;20439;-66
2021/07/06 01:13:14;;;;;;;2.65;1.40;;;20.80;81.40;;;;;;4996673;28;20033;-66
2021/07/06 01:15:40;;;;;;;1.98;1.17;;;20.80;81.50;;;;;;4995172;28;20034;-66
2021/07/06 01:18:12;;;;;;;2.72;1.10;;;20.80;81.70;;;;;;4990183;28;20112;-66
2021/07/06 01:20:47;;;;;;;2.95;1.10;;;20.80;81.80;;;;;;5007747;28;20472;-67
2021/07/06 01:23:13;;;;;;;1.70;1.10;;;20.80;81.80;;;;;;4996111;28;20031;-67
2021/07/06 01:25:40;;;;;;;1.67;1.08;;;20.80;81.80;;;;;;4984555;28;20026;-66
2021/07/06 01:28:06;;;;;;;4.35;1.27;;;20.80;81.50;;;;;;4994880;28;20034;-66
2021/07/06 01:30:32;;;;;;;1.42;1.10;;;20.80;81.60;;;;;;4992235;28;20667;-66
2021/07/06 01:32:59;;;;;;;1.27;1.00;;;20.80;81.50;;;;;;4982492;28;20530;-67
2021/07/06 01:35:24;;;;;;;2.95;1.17;;;20.80;81.60;;;;;;4995628;28;20029;-67
2021/07/06 01:37:52;;;;;;;4.65;1.30;;;20.80;81.90;;;;;;5001210;28;20113;-66
2021/07/06 01:40:20;;;;;;;2.97;1.15;;;20.80;81.90;;;;;;4999370;28;20627;-66
2021/07/06 01:42:47;;;;;;;2.13;1.00;;;20.80;81.80;;;;;;5014819;28;20021;-66
2021/07/06 01:45:15;;;;;;;2.30;1.10;;;20.80;81.70;;;;;;4981828;28;20432;-66
2021/07/06 01:47:43;;;;;;;1.88;0.80;;;20.80;81.70;;;;;;4978895;28;20026;-66
2021/07/06 01:50:13;;;;;;;3.15;1.13;;;20.80;81.60;;;;;;4986674;28;20030;-66
2021/07/06 01:52:43;;;;;;;3.10;1.00;;;20.80;81.50;;;;;;4994271;28;20034;-67
2021/07/06 01:55:13;;;;;;;2.25;1.20;;;20.80;81.40;;;;;;5009873;28;20068;-66
2021/07/06 01:57:40;;;;;;;2.20;1.20;;;20.80;81.50;;;;;;4996669;28;20034;-67
2021/07/06 02:00:12;;;;;;;1.50;1.10;;;20.80;81.40;;;;;;4979377;28;20037;-67
2021/07/06 02:02:38;;;;;;;;;;;20.80;81.30;;;;;;5014707;28;20030;-66
2021/07/06 02:05:14;;;;;;;1.88;1.15;;;20.80;81.60;;;;;;5004015;28;20059;-66
2021/07/06 02:07:41;;;;;;;3.28;1.13;;;20.80;81.40;;;;;;4998614;28;20134;-66
2021/07/06 02:10:07;;;;;;;2.08;1.10;;;20.80;81.30;;;;;;4991195;28;20026;-66
2021/07/06 02:12:33;;;;;;;1.65;0.98;;;20.80;81.20;;;;;;5014562;28;20459;-66
2021/07/06 02:15:00;;;;;;;1.90;1.10;;;20.80;81.30;;;;;;4996871;28;20093;-66
2021/07/06 02:17:25;;;;;;;2.42;1.27;;;20.80;81.20;;;;;;4994458;28;20054;-66
2021/07/06 02:19:51;;;;;;;2.65;0.90;;;20.70;81.00;;;;;;4982375;28;20057;-66
2021/07/06 02:22:16;;;;;;;2.17;1.05;;;20.80;81.10;;;;;;5001411;28;20027;-66
2021/07/06 02:24:42;;;;;;;2.42;1.00;;;20.80;81.40;;;;;;4977121;28;20033;-66
2021/07/06 02:27:08;;;;;;;2.95;1.13;;;20.80;81.50;;;;;;5003413;28;20030;-66
2021/07/06 02:29:33;;;;;;;1.13;0.82;;;20.80;81.20;;;;;;5013887;28;20063;-66
2021/07/06 02:31:59;;;;;;;2.05;0.93;;;20.80;81.20;;;;;;5010599;28;20380;-66
2021/07/06 02:34:24;;;;;;;1.08;0.82;;;20.80;81.20;;;;;;5003377;28;20030;-66
2021/07/06 02:36:50;;;;;;;1.98;1.00;;;20.80;81.10;;;;;;5014095;28;20511;-67
2021/07/06 02:39:15;;;;;;;1.40;0.90;;;20.70;81.00;;;;;;4987895;28;20026;-67
2021/07/06 02:41:41;;;;;;;1.35;0.95;;;20.80;81.30;;;;;;4990656;28;20026;-67
2021/07/06 02:44:07;;;;;;;2.00;0.95;;;20.80;81.20;;;;;;5014030;28;20502;-67
2021/07/06 02:46:32;;;;;;;1.38;1.10;;;20.80;81.00;;;;;;5009868;28;20025;-67
2021/07/06 02:48:58;;;;;;;3.42;0.80;;;20.80;81.00;;;;;;5012687;28;20053;-67
2021/07/06 02:51:23;;;;;;;1.30;1.00;;;20.80;80.90;;;;;;5008171;28;20108;-67
2021/07/06 02:53:49;;;;;;;1.50;0.90;;;20.80;80.90;;;;;;4995566;28;20026;-67
2021/07/06 02:56:14;;;;;;;1.80;0.95;;;20.80;81.00;;;;;;4996010;28;20030;-66
2021/07/06 02:58:40;;;;;;;2.15;0.80;;;20.80;80.90;;;;;;4995038;28;20022;-67
2021/07/06 03:01:05;;;;;;;2.35;0.80;;;20.80;80.90;;;;;;4998450;28;20034;-67
2021/07/06 03:03:31;;;;;;;1.38;1.10;;;20.80;80.90;;;;;;5006026;28;20034;-67
2021/07/06 03:05:56;;;;;;;1.95;0.90;;;20.80;80.80;;;;;;4976489;28;20023;-67
2021/07/06 03:08:22;;;;;;;1.23;0.90;;;20.80;81.30;;;;;;4993639;28;20026;-67
2021/07/06 03:10:47;;;;;;;1.38;0.85;;;20.80;80.70;;;;;;4991267;28;20121;-66
2021/07/06 03:13:13;;;;;;;2.47;1.02;;;20.80;80.80;;;;;;4993929;28;20038;-67
2021/07/06 03:15:39;;;;;;;1.55;0.90;;;20.80;80.70;;;;;;5005543;28;20029;-66
2021/07/06 03:18:06;;;;;;;1.70;0.80;;;20.80;80.70;;;;;;4995494;28;20125;-66
2021/07/06 03:20:32;;;;;;;1.58;0.90;;;20.70;80.60;;;;;;5007425;28;20514;-66
2021/07/06 03:22:58;;;;;;;1.27;0.85;;;20.80;80.70;;;;;;4999215;28;20022;-67
2021/07/06 03:25:26;;;;;;;1.70;0.95;;;20.80;80.70;;;;;;5007808;28;20037;-67
2021/07/06 03:27:52;;;;;;;1.40;1.00;;;20.70;80.50;;;;;;4994408;28;20033;-66
2021/07/06 03:30:36;;;;;;;1.90;1.10;;;20.70;80.60;;;;;;4993638;28;20026;-67
2021/07/06 03:33:04;;;;;;;1.40;1.13;;;20.70;80.70;;;;;;4994547;28;20113;-67
2021/07/06 03:35:30;;;;;;;0.95;0.80;;;20.80;80.60;;;;;;4988738;28;20121;-67
2021/07/06 03:37:56;;;;;;;0.93;0.70;;;20.80;80.50;;;;;;5011036;28;20050;-67
2021/07/06 03:40:22;;;;;;;2.40;0.95;;;20.80;80.70;;;;;;5001267;28;20679;-67
2021/07/06 03:42:49;;;;;;;1.33;0.85;;;20.70;80.60;;;;;;5012957;28;20065;-66
2021/07/06 03:45:15;;;;;;;1.55;0.80;;;20.80;80.70;;;;;;5012065;28;20033;-67
2021/07/06 03:47:41;;;;;;;2.80;0.88;;;20.70;80.60;;;;;;5011003;28;20026;-67
2021/07/06 03:50:10;;;;;;;1.63;0.90;;;20.80;80.80;;;;;;5009356;28;20038;-66
2021/07/06 03:52:35;;;;;;;1.00;0.85;;;20.80;80.70;;;;;;4993007;28;20030;-66
2021/07/06 03:55:01;;;;;;;1.52;0.82;;;20.80;80.70;;;;;;4992936;28;20415;-66
2021/07/06 03:57:29;;;;;;;1.00;0.70;;;20.80;80.70;;;;;;4994105;28;20479;-66
2021/07/06 04:00:07;;;;;;;1.05;0.80;;;20.80;80.60;;;;;;4976858;28;20037;-66
2021/07/06 04:02:32;;;;;;;2.05;0.75;;;20.80;80.60;;;;;;4999167;28;20033;-66
2021/07/06 04:04:58;;;;;;;2.58;0.82;;;20.80;80.60;;;;;;4981926;28;20396;-67
2021/07/06 04:07:23;;;;;;;1.02;0.60;;;20.80;80.70;;;;;;4992837;28;20033;-67
2021/07/06 04:09:48;;;;;;;1.00;0.80;;;20.80;81.10;;;;;;5002391;28;20048;-66
2021/07/06 04:12:14;;;;;;;3.58;1.10;;;20.80;81.10;;;;;;5011966;28;20029;-66
2021/07/06 04:14:40;;;;;;;1.23;0.80;;;20.80;81.70;;;;;;4994485;28;20110;-66
2021/07/06 04:17:06;;;;;;;1.70;0.90;;;20.80;81.60;;;;;;4993553;28;20038;-63
2021/07/06 04:19:31;;;;;;;2.58;0.80;;;20.70;81.40;;;;;;4988272;28;20037;-67
2021/07/06 04:21:57;;;;;;;2.83;0.90;;;20.80;81.30;;;;;;4999774;28;20468;-66
2021/07/06 04:24:22;;;;;;;7.18;1.88;;;20.80;81.30;;;;;;4983158;28;20155;-66
2021/07/06 04:26:48;;;;;;;4.43;1.38;;;20.80;81.60;;;;;;4969299;28;20041;-65
2021/07/06 04:29:14;;;;;;;5.10;1.17;;;20.80;81.70;;;;;;4971625;28;20079;-66
2021/07/06 04:31:39;;;;;;;8.32;1.42;;;20.80;82.10;;;;;;4989629;28;20053;-66
2021/07/06 04:34:05;;;;;;;3.30;1.40;;;20.80;82.10;;;;;;5004999;28;20034;-66
2021/07/06 04:36:30;;;;;;;2.53;1.08;;;20.80;82.10;;;;;;4990334;28;20038;-64
2021/07/06 04:38:56;;;;;;;3.85;1.20;;;20.80;82.20;;;;;;4991230;28;20088;-67
2021/07/06 04:41:22;;;;;;;2.33;1.23;;;20.80;81.90;;;;;;5005659;28;20080;-66
2021/07/06 04:43:47;;;;;;;4.50;1.08;;;20.80;82.10;;;;;;4988250;28;20546;-66
2021/07/06 04:46:13;;;;;;;2.45;1.10;;;20.80;82.50;;;;;;4988111;28;20053;-66
2021/07/06 04:48:39;;;;;;;1.63;1.00;;;20.80;82.20;;;;;;4988298;28;20105;-66
2021/07/06 04:51:06;;;;;;;1.55;0.88;;;20.80;82.10;;;;;;4976088;28;20044;-67
2021/07/06 04:53:32;;;;;;;2.97;1.20;;;20.80;82.20;;;;;;4985771;28;20034;-67
2021/07/06 04:55:59;;;;;;;3.33;1.00;;;20.80;82.00;;;;;;4994659;28;20026;-66
2021/07/06 04:58:24;;;;;;;3.58;1.48;;;20.80;81.90;;;;;;4986940;28;20032;-68
2021/07/06 05:00:50;;;;;;;2.42;1.00;;;20.80;82.20;;;;;;5002035;28;20017;-66
2021/07/06 05:03:16;;;;;;;4.03;1.30;;;20.80;82.10;;;;;;4999603;28;20487;-66
2021/07/06 05:05:41;;;;;;;2.13;1.20;;;20.80;81.80;;;;;;4968428;28;20041;-66
2021/07/06 05:08:11;;;;;;;8.13;1.23;;;20.80;82.10;;;;;;4990133;28;20492;-65
2021/07/06 05:10:36;;;;;;;2.95;1.00;;;20.90;82.40;;;;;;5005202;28;20022;-65
2021/07/06 05:13:02;;;;;;;5.00;1.25;;;20.90;82.60;;;;;;5009530;28;20026;-65
2021/07/06 05:15:27;;;;;;;4.68;1.30;;;20.90;81.80;;;;;;5010631;28;20523;-65
2021/07/06 05:17:53;;;;;;;3.85;1.20;;;20.90;82.40;;;;;;5000384;28;20022;-67
2021/07/06 05:20:19;;;;;;;5.25;1.10;;;20.90;82.10;;;;;;5001526;28;20025;-66
2021/07/06 05:22:44;;;;;;;2.63;1.10;;;20.90;82.30;;;;;;5003380;28;20443;-66
2021/07/06 05:25:11;;;;;;;4.93;1.08;;;20.90;82.20;;;;;;5047205;23;20020;-66
2021/07/06 05:27:38;;;;;;;3.10;1.02;;;20.90;81.80;;;;;;5050638;28;20025;-66
2021/07/06 05:30:06;;;;;;;4.65;1.15;;;20.90;81.80;;;;;;5045494;28;20052;-67
2021/07/06 05:32:32;;;;;;;2.35;1.15;;;20.90;81.70;;;;;;5049375;28;20078;-66
2021/07/06 05:34:58;;;;;;;2.67;0.98;;;21.00;82.30;;;;;;5061946;28;20028;-65
2021/07/06 05:37:23;;;;;;;5.78;1.05;;;21.00;81.70;;;;;;5050585;28;20028;-66
2021/07/06 05:39:49;;;;;;;3.58;1.15;;;21.00;82.30;;;;;;5051058;28;20025;-65
2021/07/06 05:42:15;;;;;;;3.80;1.13;;;21.00;82.30;;;;;;5051180;28;20556;-66
2021/07/06 05:44:44;;;;;;;5.85;1.17;;;21.10;82.20;;;;;;5051696;28;20379;-66
2021/07/06 05:47:10;;;;;;;4.07;1.10;;;21.10;82.40;;;;;;5062809;28;20032;-67
2021/07/06 05:49:35;;;;;;;3.95;1.10;;;21.20;82.40;;;;;;5073095;28;20074;-66
2021/07/06 05:52:02;;;;;;;1.67;0.93;;;21.20;81.70;;;;;;5060124;28;20029;-66
2021/07/06 05:54:27;;;;;;;11.38;1.40;;;21.20;82.10;;;;;;5034777;28;20024;-66
2021/07/06 05:58:38;;;;;;;5.25;1.23;;;21.30;83.30;;;;;;5108948;27;20295;-74
2021/07/06 06:01:04;;;;;;;4.13;1.08;;;21.40;82.80;;;;;;5109598;28;20465;-73
2021/07/06 06:03:29;;;;;;;9.50;1.10;;;21.40;84.00;;;;;;5109387;28;20030;-72
2021/07/06 06:05:55;;;;;;;4.63;1.10;;;21.50;83.40;;;;;;5100528;28;20059;-74
2021/07/06 06:08:21;;;;;;;5.45;1.20;;;21.60;83.10;;;;;;5088650;28;20386;-72
2021/07/06 06:10:46;;;;;;;12.40;1.60;;;21.70;82.90;;;;;;5087887;28;20490;-72
2021/07/06 06:13:12;;;;;;;4.32;1.10;;;21.70;83.10;;;;;;5087759;28;20020;-71
2021/07/06 06:15:38;;;;;;;4.90;1.42;;;21.80;82.40;;;;;;5088330;28;20452;-70
2021/07/06 06:18:03;;;;;;;8.35;1.10;;;21.90;82.30;;;;;;5085963;28;20048;-73
2021/07/06 06:20:29;;;;;;;4.97;1.23;;;22.00;81.80;;;;;;5088888;28;20027;-72
2021/07/06 06:22:55;;;;;;;4.22;1.05;;;22.00;82.10;;;;;;5086831;28;20048;-73
2021/07/06 06:25:20;;;;;;;7.15;1.40;;;22.00;81.60;;;;;;5088270;28;20028;-72
2021/07/06 06:27:46;;;;;;;8.45;1.20;;;22.00;81.30;;;;;;5087454;28;20036;-73
2021/07/06 06:30:12;;;;;;;13.38;1.83;;;22.00;81.20;;;;;;5085323;28;20099;-72
2021/07/06 06:32:38;;;;;;;10.98;1.65;;;22.00;80.50;;;;;;5087866;28;20048;-71
2021/07/06 06:35:04;;;;;;;4.93;1.20;;;22.00;81.10;;;;;;5086984;28;20039;-72
2021/07/06 06:37:30;;;;;;;9.25;1.90;;;22.00;80.00;;;;;;5087872;28;20028;-71
2021/07/06 06:39:55;;;;;;;8.13;1.70;;;22.00;80.40;;;;;;5088046;28;20021;-72
2021/07/06 06:42:21;;;;;;;6.38;1.55;;;22.00;79.80;;;;;;5087999;28;20482;-72
2021/07/06 06:44:46;;;;;;;6.50;1.30;;;22.10;80.00;;;;;;5087755;28;20047;-72
2021/07/06 06:47:13;;;;;;;5.80;1.40;;;22.10;79.90;;;;;;5086997;28;20024;-73
2021/07/06 06:49:39;;;;;;;7.63;1.45;;;22.10;79.70;;;;;;5088085;28;20024;-73
2021/07/06 06:52:04;;;;;;;8.80;1.40;;;22.20;79.40;;;;;;5087091;28;20521;-73
2021/07/06 06:54:31;;;;;;;7.60;1.50;;;22.40;78.70;;;;;;5085727;28;20040;-73
2021/07/06 06:56:58;;;;;;;6.68;1.50;;;22.50;78.50;;;;;;5087160;28;20577;-72
2021/07/06 06:59:24;;;;;;;6.55;1.27;;;22.70;78.50;;;;;;5085192;28;20034;-73
2021/07/06 07:01:49;;;;;;;4.22;1.20;;;22.80;78.20;;;;;;5087399;28;20243;-73
2021/07/06 07:04:15;;;;;;;7.60;1.60;;;22.90;77.90;;;;;;5085854;28;20016;-73
2021/07/06 07:06:40;;;;;;;10.27;1.52;;;22.80;77.80;;;;;;5085347;28;20111;-73
2021/07/06 07:09:08;;;;;;;8.57;1.95;;;22.70;78.10;;;;;;5076866;28;20027;-73
2021/07/06 07:11:34;;;;;;;6.20;1.10;;;22.70;77.40;;;;;;5060576;28;20060;-73
2021/07/06 07:14:00;;;;;;;4.70;1.23;;;22.60;77.80;;;;;;5071584;28;20024;-73
2021/07/06 07:16:25;;;;;;;9.85;1.75;;;22.60;77.60;;;;;;5073614;28;20020;-72
2021/07/06 07:18:51;;;;;;;6.72;1.83;;;22.60;77.60;;;;;;5074189;28;20020;-73
2021/07/06 07:21:16;;;;;;;5.82;1.05;;;22.60;77.20;;;;;;5071890;28;20024;-72
2021/07/06 07:23:42;;;;;;;9.85;1.45;;;22.60;77.30;;;;;;5070984;28;20024;-72
2021/07/06 07:26:08;;;;;;;6.85;1.60;;;22.60;77.80;;;;;;5071169;28;20086;-72
2021/07/06 07:28:33;;;;;;;4.28;1.52;;;22.60;77.70;;;;;;5070188;28;20077;-72
2021/07/06 07:30:59;;;;;;;4.07;1.35;;;22.60;77.90;;;;;;5072836;28;20081;-73
2021/07/06 07:33:24;;;;;;;12.68;1.60;;;22.60;76.80;;;;;;5072117;28;20085;-72
2021/07/06 07:35:50;;;;;;;14.10;2.08;;;22.60;76.20;;;;;;5072879;28;20039;-72
2021/07/06 07:38:15;;;;;;;21.30;2.17;;;22.60;76.50;;;;;;5072941;28;20096;-72
2021/07/06 07:40:41;;;;;;;5.93;1.52;;;22.60;76.90;;;;;;5072948;28;20021;-72
2021/07/06 07:43:07;;;;;;;6.35;1.48;;;22.60;78.40;;;;;;5072941;28;20481;-71
2021/07/06 07:45:36;;;;;;;15.13;1.75;;;22.60;78.40;;;;;;5069353;28;20019;-72
2021/07/06 07:48:04;;;;;;;7.65;1.40;;;22.60;77.30;;;;;;5067069;28;20082;-71
2021/07/06 07:50:30;;;;;;;6.72;1.52;;;22.60;78.00;;;;;;5071467;28;20055;-71
2021/07/06 07:52:56;;;;;;;9.20;1.40;;;22.60;78.20;;;;;;5070183;28;20433;-72
2021/07/06 07:55:21;;;;;;;5.80;1.30;;;22.60;78.00;;;;;;5073059;28;20028;-72
2021/07/06 07:57:47;;;;;;;8.90;1.70;;;22.60;77.60;;;;;;5068068;28;20030;-72
2021/07/06 08:00:15;;;;;;;6.47;1.35;;;22.60;77.60;;;;;;5073038;28;20048;-72
2021/07/06 08:02:41;;;;;;;8.18;1.48;;;22.60;78.30;;;;;;5073401;28;20513;-71
2021/07/06 08:05:07;;;;;;;5.03;1.50;;;22.60;77.90;;;;;;5072371;28;20112;-72
2021/07/06 08:07:32;;;;;;;4.47;1.17;;;22.60;77.70;;;;;;5072551;28;20103;-71
2021/07/06 08:09:58;;;;;;;6.97;1.27;;;22.60;77.70;;;;;;5070986;28;20024;-72
2021/07/06 08:12:23;;;;;;;7.40;1.40;;;22.60;78.00;;;;;;5070773;28;20025;-72
2021/07/06 08:14:52;;;;;;;3.00;1.00;;;22.60;78.30;;;;;;5071689;28;20086;-71
2021/07/06 08:17:18;;;;;;;5.05;1.00;;;22.60;78.40;;;;;;5070927;28;20052;-72
2021/07/06 08:19:45;;;;;;;5.45;1.27;;;22.60;78.90;;;;;;5064725;28;20100;-71
2021/07/06 08:22:10;;;;;;;20.77;2.13;;;22.50;78.70;;;;;;5069627;28;20622;-72
2021/07/06 08:24:36;;;;;;;14.07;1.80;;;22.50;77.90;;;;;;5069375;28;20020;-72
2021/07/06 08:27:01;;;;;;;11.07;2.00;;;22.50;79.10;;;;;;5072653;28;20500;-72
2021/07/06 08:29:27;;;;;;;13.50;1.70;;;22.50;79.50;;;;;;5071046;28;20040;-72
2021/07/06 08:31:54;;;;;;;10.45;1.40;;;22.50;79.60;;;;;;5072540;28;20028;-71
2021/07/06 08:34:19;;;;;;;7.35;1.58;;;22.50;79.70;;;;;;5072766;28;20107;-71
2021/07/06 08:36:45;;;;;;;7.03;1.40;;;22.50;80.00;;;;;;5071987;28;20513;-71
2021/07/06 08:39:11;;;;;;;9.82;1.77;;;22.50;80.10;;;;;;5067570;28;20032;-72
2021/07/06 08:41:38;;;;;;;7.22;1.40;;;22.50;80.60;;;;;;5070084;28;20024;-70
2021/07/06 08:44:04;;;;;;;14.40;2.45;;;22.40;80.70;;;;;;5069816;28;20020;-71
2021/07/06 08:46:31;;;;;;;9.05;1.80;;;22.40;80.90;;;;;;5070998;28;20031;-71
2021/07/06 08:48:57;;;;;;;8.75;2.15;;;22.40;81.00;;;;;;5070867;28;20152;-72
2021/07/06 08:51:23;;;;;;;10.68;1.80;;;22.40;81.40;;;;;;5070584;28;20043;-72
2021/07/06 08:53:50;;;;;;;9.55;1.63;;;22.30;80.50;;;;;;5069116;28;20025;-72
2021/07/06 08:56:16;;;;;;;11.25;1.55;;;22.30;81.40;;;;;;5070295;28;20021;-73
2021/07/06 08:58:42;;;;;;;7.78;1.35;;;22.20;81.60;;;;;;5070023;28;20028;-72
2021/07/06 09:01:08;;;;;;;8.45;1.30;;;22.20;82.00;;;;;;5071815;28;20031;-72
2021/07/06 09:03:53;;;;;;;5.43;1.35;;;22.20;82.40;;;;;;5069839;28;20029;-72
2021/07/06 09:06:23;;;;;;;5.80;1.25;;;22.20;82.60;;;;;;5067862;28;20070;-72
2021/07/06 09:08:52;;;;;;;8.70;2.08;;;22.20;82.60;;;;;;5071983;28;20104;-74
2021/07/06 09:11:20;;;;;;;5.60;1.30;;;22.20;82.40;;;;;;5065993;28;20108;-71
2021/07/06 09:13:46;;;;;;;13.32;1.83;;;22.20;83.00;;;;;;5063539;28;20021;-71
2021/07/06 09:16:22;;;;;;;4.95;1.10;;;22.20;83.30;;;;;;5065593;28;20024;-70
2021/07/06 09:18:48;;;;;;;8.15;1.60;;;22.20;83.40;;;;;;5070306;28;20504;-72
2021/07/06 09:21:15;;;;;;;6.75;1.48;;;22.20;83.30;;;;;;5072393;28;20094;-69
2021/07/06 09:23:43;;;;;;;6.38;1.10;;;22.20;83.60;;;;;;5072129;28;20091;-70
2021/07/06 09:26:16;;;;;;;7.97;1.20;;;22.10;83.50;;;;;;5071926;28;20028;-71
2021/07/06 09:28:48;;;;;;;4.97;1.15;;;22.10;83.00;;;;;;5071698;28;20020;-70
2021/07/06 09:31:27;;;;;;;5.68;1.13;;;22.10;83.50;;;;;;5071161;28;20028;-71
2021/07/06 09:34:00;;;;;;;2.25;1.00;;;22.10;83.70;;;;;;5071840;28;20561;-72
2021/07/06 09:36:48;;;;;;;6.03;1.15;;;22.10;83.90;;;;;;5070479;28;20021;-71
2021/07/06 09:39:20;;;;;;;5.65;1.13;;;22.10;83.60;;;;;;5070245;28;20521;-72
2021/07/06 09:42:03;;;;;;;8.55;1.55;;;22.00;83.60;;;;;;5071875;28;20470;-73
2021/07/06 09:44:33;;;;;;;4.50;1.05;;;22.00;83.40;;;;;;5071643;28;20021;-73
2021/07/06 09:47:02;;;;;;;9.63;1.10;;;22.00;83.30;;;;;;5071725;28;20446;-73
2021/07/06 09:49:30;;;;;;;5.40;1.08;;;22.00;82.80;;;;;;5071462;28;20465;-72
2021/07/06 09:51:57;;;;;;;4.75;1.30;;;22.00;84.60;;;;;;5070481;28;20031;-72
2021/07/06 09:54:32;;;;;;;4.00;1.10;;;22.00;83.90;;;;;;5071750;28;20028;-72
2021/07/06 09:57:21;;;;;;;6.78;1.30;;;22.00;83.90;;;;;;5071324;28;20032;-72
2021/07/06 10:00:11;;;;;;;5.32;1.20;;;21.90;83.10;;;;;;5071688;28;20023;-73
2021/07/06 10:02:38;;;;;;;5.15;1.02;;;21.90;83.00;;;;;;5071751;28;20020;-72
2021/07/06 10:05:09;;;;;;;6.45;1.10;;;21.90;84.10;;;;;;5071415;28;20514;-72
2021/07/06 10:07:36;;;;;;;4.50;1.00;;;21.90;83.50;;;;;;5071353;28;20031;-72
2021/07/06 10:10:09;;;;;;;5.50;1.40;;;21.90;84.00;;;;;;5071613;28;20052;-73
2021/07/06 10:12:42;;;;;;;2.65;0.90;;;21.90;84.70;;;;;;5071577;28;20031;-73
2021/07/06 10:15:10;;;;;;;5.63;1.58;;;21.90;84.80;;;;;;5071427;28;20038;-73
2021/07/06 10:17:37;;;;;;;2.85;1.00;;;21.90;84.70;;;;;;5071106;28;20031;-72
2021/07/06 10:20:05;;;;;;;3.78;1.02;;;21.90;85.10;;;;;;5071448;28;20027;-72
2021/07/06 10:22:30;;;;;;;6.82;1.20;;;22.00;85.00;;;;;;5071380;28;20498;-72
2021/07/06 10:25:00;;;;;;;5.68;1.15;;;21.90;83.60;;;;;;5071319;28;20028;-72
2021/07/06 10:27:28;;;;;;;3.60;1.02;;;21.90;84.20;;;;;;5071050;28;20020;-72
2021/07/06 10:30:15;;;;;;;6.95;1.10;;;21.90;84.30;;;;;;5069442;28;20485;-72
2021/07/06 10:32:43;;;;;;;5.13;1.10;;;21.90;84.50;;;;;;5071308;28;20028;-72
2021/07/06 10:35:11;;;;;;;6.15;1.38;;;21.90;84.30;;;;;;5067621;28;20095;-74
2021/07/06 10:37:38;;;;;;;9.48;1.83;;;21.90;84.30;;;;;;5071468;28;20489;-69
2021/07/06 10:40:15;;;;;;;7.43;1.55;;;21.90;85.20;;;;;;5075211;28;20017;-71
2021/07/06 10:42:41;;;;;;;4.03;1.40;;;21.90;85.70;;;;;;5064922;28;20557;-73
2021/07/06 10:45:22;;;;;;;9.55;1.98;;;21.90;85.10;;;;;;5077654;28;20107;-71
2021/07/06 10:47:50;;;;;;;11.27;2.20;;;21.90;84.00;;;;;;5067876;28;20449;-73
2021/07/06 10:50:31;;;;;;;13.70;2.25;;;21.90;83.80;;;;;;5073381;28;20047;-73
2021/07/06 10:53:25;;;;;;;9.05;1.88;;;21.90;84.30;;;;;;5074359;28;20115;-72
2021/07/06 10:56:10;;;;;;;6.78;1.52;;;21.80;85.50;;;;;;5073695;28;20044;-72
2021/07/06 10:59:00;;;;;;;8.18;1.73;;;21.80;84.90;;;;;;5074041;28;20027;-72
2021/07/06 11:01:38;;;;;;;6.50;1.65;;;21.90;86.10;;;;;;5074452;28;20021;-72
2021/07/06 11:04:09;;;;;;;5.45;1.70;;;21.90;85.40;;;;;;5072856;28;20109;-74
2021/07/06 11:06:43;;;;;;;11.68;1.75;;;21.90;85.10;;;;;;5067715;28;20028;-72
2021/07/06 11:09:12;;;;;;;8.20;1.70;;;21.90;85.10;;;;;;5064654;28;20352;-72
2021/07/06 11:11:38;;;;;;;6.40;1.52;;;22.00;83.90;;;;;;5065195;28;20166;-72
2021/07/06 11:14:23;;;;;;;12.30;2.00;;;22.00;85.00;;;;;;5069643;28;20494;-71
2021/07/06 11:16:59;;;;;;;6.78;1.88;;;22.00;83.20;;;;;;5073451;28;20028;-72
2021/07/06 11:19:38;;;;;;;8.38;1.60;;;22.00;86.10;;;;;;5072841;28;20070;-72
2021/07/06 11:22:11;;;;;;;6.78;1.63;;;22.00;83.40;;;;;;5071449;28;20024;-72
2021/07/06 11:24:43;;;;;;;7.18;1.42;;;22.10;85.50;;;;;;5068619;28;20016;-71
2021/07/06 11:27:09;;;;;;;5.43;1.15;;;22.10;85.80;;;;;;5073800;28;20527;-73
2021/07/06 11:29:37;;;;;;;5.72;1.60;;;22.10;86.20;;;;;;5071824;28;20029;-71
2021/07/06 11:32:11;;;;;;;6.95;1.40;;;22.10;86.20;;;;;;5069765;28;20021;-70
2021/07/06 11:34:37;;;;;;;7.47;1.48;;;22.20;85.00;;;;;;5068268;28;20029;-71
2021/07/06 11:37:05;;;;;;;3.65;1.20;;;22.20;85.00;;;;;;5070474;28;20052;-71
2021/07/06 11:39:33;;;;;;;4.80;1.10;;;22.20;85.20;;;;;;5072595;28;20048;-71
2021/07/06 11:41:59;;;;;;;3.33;1.15;;;22.20;86.60;;;;;;5066415;28;20054;-72
2021/07/06 11:44:24;;;;;;;3.92;1.23;;;22.20;86.30;;;;;;5073027;28;20032;-71
2021/07/06 11:46:55;;;;;;;1.77;0.73;;;22.30;85.60;;;;;;5072228;28;20021;-71
2021/07/06 11:49:21;;;;;;;3.63;1.02;;;22.30;85.40;;;;;;5073662;28;20496;-71
2021/07/06 11:51:46;;;;;;;6.30;1.30;;;22.30;85.80;;;;;;5073831;28;20029;-71
2021/07/06 11:54:13;;;;;;;2.53;0.90;;;22.30;85.10;;;;;;5072282;28;20351;-74
2021/07/06 11:56:39;;;;;;;4.07;1.10;;;22.40;85.10;;;;;;5073393;28;20056;-71
2021/07/06 11:59:11;;;;;;;3.00;0.93;;;22.40;85.30;;;;;;5072065;28;20102;-71
2021/07/06 12:01:37;;;;;;;3.45;1.23;;;22.40;85.20;;;;;;5066341;28;20562;-71
2021/07/06 12:04:03;;;;;;;3.17;0.93;;;22.40;84.60;;;;;;5067234;28;20025;-71
2021/07/06 12:06:31;;;;;;;4.82;1.10;;;22.40;84.00;;;;;;5072172;28;20496;-72
2021/07/06 12:09:02;;;;;;;3.35;0.80;;;22.50;86.10;;;;;;5070107;28;20111;-71
2021/07/06 12:11:29;;;;;;;;;;;22.50;85.50;;;;;;5070367;28;20478;-71
2021/07/06 12:13:58;;;;;;;1.85;0.70;;;22.50;86.10;;;;;;5071730;28;19908;-71
2021/07/06 12:16:26;;;;;;;1.52;0.80;;;22.50;83.70;;;;;;5067173;28;20017;-72
2021/07/06 12:19:08;;;;;;;2.55;0.77;;;22.60;84.80;;;;;;5053355;28;20060;-71
2021/07/06 12:21:54;;;;;;;0.60;0.60;;;22.60;83.90;;;;;;5054100;28;20028;-72
2021/07/06 12:24:27;;;;;;;1.45;0.60;;;22.60;84.10;;;;;;5068220;28;20033;-72
2021/07/06 12:26:55;;;;;;;0.85;0.57;;;22.60;82.10;;;;;;5071484;28;20393;-72
2021/07/06 12:29:31;;;;;;;1.42;0.75;;;22.60;82.80;;;;;;5070728;28;20371;-72
2021/07/06 12:31:58;;;;;;;1.67;0.70;;;22.70;84.80;;;;;;5072496;28;20032;-73
2021/07/06 12:34:40;;;;;;;1.17;0.77;;;22.70;83.60;;;;;;5071716;28;20031;-72
2021/07/06 12:37:09;;;;;;;1.80;0.80;;;22.70;82.60;;;;;;5067731;28;20028;-72
2021/07/06 12:39:40;;;;;;;2.45;0.60;;;22.70;82.50;;;;;;5071268;28;20452;-69
2021/07/06 12:42:06;;;;;;;0.98;0.60;;;22.70;81.90;;;;;;5071962;28;20051;-71
2021/07/06 12:44:38;;;;;;;3.67;0.80;;;22.80;81.20;;;;;;5069805;28;20028;-71
2021/07/06 12:47:33;;;;;;;3.17;0.73;;;22.70;81.10;;;;;;5074124;28;20401;-70
2021/07/06 12:49:59;;;;;;;1.63;0.60;;;22.70;79.60;;;;;;5072599;28;20020;-72